sensor_id;sensor_type;location;lat;lon;timestamp;temperature;humidity
5868;DHT22;2960;49.142;7.768;2022-10-22T00:02:26;16.70;83.80
5868;DHT22;2960;49.142;7.768;2022-10-22T00:04:54;16.70;83.70
5868;DHT22;2960;49.142;7.768;2022-10-22T00:07:23;16.70;83.60
5868;DHT22;2960;49.142;7.768;2022-10-22T00:09:50;16.70;83.50
5868;DHT22;2960;49.142;7.768;2022-10-22T00:12:17;16.70;84.10
5868;DHT22;2960;49.142;7.768;2022-10-22T00:14:44;16.70;83.40
5868;DHT22;2960;49.142;7.768;2022-10-22T00:17:11;16.70;83.30
5868;DHT22;2960;49.142;7.768;2022-10-22T00:19:39;16.70;83.30
5868;DHT22;2960;49.142;7.768;2022-10-22T00:22:06;16.70;83.20
5868;DHT22;2960;49.142;7.768;2022-10-22T00:24:37;16.70;83.20
5868;DHT22;2960;49.142;7.768;2022-10-22T00:27:05;16.70;83.20
5868;DHT22;2960;49.142;7.768;2022-10-22T00:29:34;16.70;83.30
5868;DHT22;2960;49.142;7.768;2022-10-22T00:32:01;16.70;83.30
5868;DHT22;2960;49.142;7.768;2022-10-22T00:34:29;16.70;83.20
5868;DHT22;2960;49.142;7.768;2022-10-22T00:36:56;16.70;83.10
5868;DHT22;2960;49.142;7.768;2022-10-22T00:39:24;16.70;83.10
5868;DHT22;2960;49.142;7.768;2022-10-22T00:41:55;16.70;83.20
5868;DHT22;2960;49.142;7.768;2022-10-22T00:47:35;16.60;83.40
5868;DHT22;2960;49.142;7.768;2022-10-22T00:50:08;16.60;83.70
5868;DHT22;2960;49.142;7.768;2022-10-22T00:52:38;16.60;84.00
5868;DHT22;2960;49.142;7.768;2022-10-22T00:55:06;16.60;84.30
5868;DHT22;2960;49.142;7.768;2022-10-22T00:57:35;16.50;84.50
5868;DHT22;2960;49.142;7.768;2022-10-22T01:00:04;16.50;84.70
5868;DHT22;2960;49.142;7.768;2022-10-22T01:02:32;16.50;84.80
5868;DHT22;2960;49.142;7.768;2022-10-22T01:04:59;16.50;85.10
5868;DHT22;2960;49.142;7.768;2022-10-22T01:07:26;16.50;85.80
5868;DHT22;2960;49.142;7.768;2022-10-22T01:10:00;16.40;86.20
5868;DHT22;2960;49.142;7.768;2022-10-22T01:12:37;16.30;86.60
5868;DHT22;2960;49.142;7.768;2022-10-22T01:15:17;16.30;87.10
5868;DHT22;2960;49.142;7.768;2022-10-22T01:17:54;16.20;87.50
5868;DHT22;2960;49.142;7.768;2022-10-22T01:20:59;16.20;88.40
5868;DHT22;2960;49.142;7.768;2022-10-22T01:23:54;16.10;88.50
5868;DHT22;2960;49.142;7.768;2022-10-22T01:26:42;16.10;89.90
5868;DHT22;2960;49.142;7.768;2022-10-22T01:29:25;16.10;89.50
5868;DHT22;2960;49.142;7.768;2022-10-22T01:31:57;16.10;89.80
5868;DHT22;2960;49.142;7.768;2022-10-22T01:34:27;16.10;89.90
5868;DHT22;2960;49.142;7.768;2022-10-22T01:36:56;16.10;90.00
5868;DHT22;2960;49.142;7.768;2022-10-22T01:39:26;16.00;90.00
5868;DHT22;2960;49.142;7.768;2022-10-22T01:41:54;16.10;90.00
5868;DHT22;2960;49.142;7.768;2022-10-22T01:44:25;16.10;90.00
5868;DHT22;2960;49.142;7.768;2022-10-22T01:47:01;16.10;89.80
5868;DHT22;2960;49.142;7.768;2022-10-22T01:49:59;16.10;89.60
5868;DHT22;2960;49.142;7.768;2022-10-22T01:52:55;16.20;89.60
5868;DHT22;2960;49.142;7.768;2022-10-22T01:55:38;16.20;89.40
5868;DHT22;2960;49.142;7.768;2022-10-22T01:58:19;16.20;89.20
5868;DHT22;2960;49.142;7.768;2022-10-22T02:00:56;16.20;89.10
5868;DHT22;2960;49.142;7.768;2022-10-22T02:03:30;16.30;89.20
5868;DHT22;2960;49.142;7.768;2022-10-22T02:06:05;16.20;89.20
5868;DHT22;2960;49.142;7.768;2022-10-22T02:08:38;16.20;89.60
5868;DHT22;2960;49.142;7.768;2022-10-22T02:11:06;16.20;89.90
5868;DHT22;2960;49.142;7.768;2022-10-22T02:13:39;16.10;90.00
5868;DHT22;2960;49.142;7.768;2022-10-22T02:16:12;16.20;90.00
5868;DHT22;2960;49.142;7.768;2022-10-22T02:18:45;16.20;90.00
5868;DHT22;2960;49.142;7.768;2022-10-22T02:21:13;16.20;90.00
5868;DHT22;2960;49.142;7.768;2022-10-22T02:23:41;16.20;90.00
5868;DHT22;2960;49.142;7.768;2022-10-22T02:26:15;16.20;90.00
5868;DHT22;2960;49.142;7.768;2022-10-22T02:28:55;16.20;89.90
5868;DHT22;2960;49.142;7.768;2022-10-22T02:31:27;16.30;90.00
5868;DHT22;2960;49.142;7.768;2022-10-22T02:34:02;16.20;90.00
5868;DHT22;2960;49.142;7.768;2022-10-22T02:36:34;16.20;90.00
5868;DHT22;2960;49.142;7.768;2022-10-22T02:39:02;16.20;90.00
5868;DHT22;2960;49.142;7.768;2022-10-22T02:41:30;16.20;90.00
5868;DHT22;2960;49.142;7.768;2022-10-22T02:43:57;16.20;90.00
5868;DHT22;2960;49.142;7.768;2022-10-22T02:46:25;16.30;90.00
5868;DHT22;2960;49.142;7.768;2022-10-22T02:48:53;16.30;90.00
5868;DHT22;2960;49.142;7.768;2022-10-22T02:51:20;16.30;90.00
5868;DHT22;2960;49.142;7.768;2022-10-22T02:53:47;16.20;89.90
5868;DHT22;2960;49.142;7.768;2022-10-22T02:56:15;16.20;90.00
5868;DHT22;2960;49.142;7.768;2022-10-22T02:58:42;16.20;90.00
5868;DHT22;2960;49.142;7.768;2022-10-22T03:01:10;16.20;90.00
5868;DHT22;2960;49.142;7.768;2022-10-22T03:03:38;16.20;90.00
5868;DHT22;2960;49.142;7.768;2022-10-22T03:06:05;16.20;90.00
5868;DHT22;2960;49.142;7.768;2022-10-22T03:08:33;16.20;90.00
5868;DHT22;2960;49.142;7.768;2022-10-22T03:11:00;16.10;90.00
5868;DHT22;2960;49.142;7.768;2022-10-22T03:13:27;16.10;89.90
5868;DHT22;2960;49.142;7.768;2022-10-22T03:15:55;16.10;89.80
5868;DHT22;2960;49.142;7.768;2022-10-22T03:18:22;16.10;89.80
5868;DHT22;2960;49.142;7.768;2022-10-22T03:21:00;16.10;89.70
5868;DHT22;2960;49.142;7.768;2022-10-22T03:23:32;16.10;90.20
5868;DHT22;2960;49.142;7.768;2022-10-22T03:25:59;16.10;89.70
5868;DHT22;2960;49.142;7.768;2022-10-22T03:28:26;16.10;89.70
5868;DHT22;2960;49.142;7.768;2022-10-22T03:30:53;16.10;89.70
5868;DHT22;2960;49.142;7.768;2022-10-22T03:33:20;16.00;89.60
5868;DHT22;2960;49.142;7.768;2022-10-22T03:35:47;16.00;89.50
5868;DHT22;2960;49.142;7.768;2022-10-22T03:38:16;16.00;89.50
5868;DHT22;2960;49.142;7.768;2022-10-22T03:40:44;16.00;89.40
5868;DHT22;2960;49.142;7.768;2022-10-22T03:43:11;16.00;89.40
5868;DHT22;2960;49.142;7.768;2022-10-22T03:45:39;16.00;89.30
5868;DHT22;2960;49.142;7.768;2022-10-22T03:48:06;15.90;89.20
5868;DHT22;2960;49.142;7.768;2022-10-22T03:50:33;15.90;89.20
5868;DHT22;2960;49.142;7.768;2022-10-22T03:53:00;15.90;89.10
5868;DHT22;2960;49.142;7.768;2022-10-22T03:55:28;15.80;89.00
5868;DHT22;2960;49.142;7.768;2022-10-22T03:57:55;15.80;89.00
5868;DHT22;2960;49.142;7.768;2022-10-22T04:00:22;15.80;89.00
5868;DHT22;2960;49.142;7.768;2022-10-22T04:02:49;15.80;89.00
5868;DHT22;2960;49.142;7.768;2022-10-22T04:05:17;15.80;88.90
5868;DHT22;2960;49.142;7.768;2022-10-22T04:07:44;15.70;88.70
5868;DHT22;2960;49.142;7.768;2022-10-22T04:10:11;15.70;88.80
5868;DHT22;2960;49.142;7.768;2022-10-22T04:12:39;15.70;88.70
5868;DHT22;2960;49.142;7.768;2022-10-22T04:15:08;15.70;88.70
5868;DHT22;2960;49.142;7.768;2022-10-22T11:51:32;31.20;47.20
5868;DHT22;2960;49.142;7.768;2022-10-22T11:54:07;31.20;47.20
5868;DHT22;2960;49.142;7.768;2022-10-22T11:56:57;31.20;47.00
5868;DHT22;2960;49.142;7.768;2022-10-22T11:59:47;31.20;46.60
5868;DHT22;2960;49.142;7.768;2022-10-22T12:08:34;31.30;46.30
5868;DHT22;2960;49.142;7.768;2022-10-22T12:11:15;31.30;46.10
5868;DHT22;2960;49.142;7.768;2022-10-22T12:14:10;31.30;45.70
5868;DHT22;2960;49.142;7.768;2022-10-22T12:16:45;31.30;45.50
5868;DHT22;2960;49.142;7.768;2022-10-22T12:19:15;31.20;45.40
5868;DHT22;2960;49.142;7.768;2022-10-22T12:21:46;31.20;45.50
5868;DHT22;2960;49.142;7.768;2022-10-22T12:24:16;31.10;45.40
5868;DHT22;2960;49.142;7.768;2022-10-22T12:26:46;31.00;45.50
5868;DHT22;2960;49.142;7.768;2022-10-22T12:29:15;31.00;45.70
5868;DHT22;2960;49.142;7.768;2022-10-22T12:31:45;30.90;45.80
5868;DHT22;2960;49.142;7.768;2022-10-22T12:34:13;30.90;45.80
5868;DHT22;2960;49.142;7.768;2022-10-22T12:36:43;30.80;45.70
5868;DHT22;2960;49.142;7.768;2022-10-22T12:39:13;30.60;45.70
5868;DHT22;2960;49.142;7.768;2022-10-22T12:41:42;30.50;45.70
5868;DHT22;2960;49.142;7.768;2022-10-22T12:44:13;30.30;45.70
5868;DHT22;2960;49.142;7.768;2022-10-22T12:46:44;30.10;45.70
5868;DHT22;2960;49.142;7.768;2022-10-22T12:49:16;29.90;45.80
5868;DHT22;2960;49.142;7.768;2022-10-22T12:51:45;29.70;45.80
5868;DHT22;2960;49.142;7.768;2022-10-22T12:54:22;29.60;45.90
5868;DHT22;2960;49.142;7.768;2022-10-22T12:56:54;29.40;45.90
5868;DHT22;2960;49.142;7.768;2022-10-22T12:59:25;29.20;45.70
5868;DHT22;2960;49.142;7.768;2022-10-22T13:01:54;28.90;46.00
5868;DHT22;2960;49.142;7.768;2022-10-22T13:04:31;28.80;46.20
5868;DHT22;2960;49.142;7.768;2022-10-22T13:07:15;28.70;46.30
5868;DHT22;2960;49.142;7.768;2022-10-22T13:09:46;28.60;46.10
5868;DHT22;2960;49.142;7.768;2022-10-22T13:12:23;28.50;46.00
5868;DHT22;2960;49.142;7.768;2022-10-22T13:14:52;28.40;46.00
5868;DHT22;2960;49.142;7.768;2022-10-22T13:17:35;28.30;46.20
5868;DHT22;2960;49.142;7.768;2022-10-22T13:20:15;28.20;46.00
5868;DHT22;2960;49.142;7.768;2022-10-22T13:22:55;28.10;46.20
5868;DHT22;2960;49.142;7.768;2022-10-22T13:25:27;28.10;46.40
5868;DHT22;2960;49.142;7.768;2022-10-22T13:27:56;28.10;46.50
5868;DHT22;2960;49.142;7.768;2022-10-22T13:30:29;28.00;46.40
5868;DHT22;2960;49.142;7.768;2022-10-22T13:33:20;28.00;46.50
5868;DHT22;2960;49.142;7.768;2022-10-22T13:35:51;28.00;46.70
5868;DHT22;2960;49.142;7.768;2022-10-22T13:38:19;28.00;46.70
5868;DHT22;2960;49.142;7.768;2022-10-22T13:40:48;27.90;46.60
5868;DHT22;2960;49.142;7.768;2022-10-22T13:43:18;27.90;46.70
5868;DHT22;2960;49.142;7.768;2022-10-22T13:45:50;27.80;46.90
5868;DHT22;2960;49.142;7.768;2022-10-22T13:48:20;27.80;47.00
5868;DHT22;2960;49.142;7.768;2022-10-22T13:50:48;27.80;47.20
5868;DHT22;2960;49.142;7.768;2022-10-22T13:53:18;27.80;47.40
5868;DHT22;2960;49.142;7.768;2022-10-22T13:55:47;27.80;47.50
5868;DHT22;2960;49.142;7.768;2022-10-22T13:58:16;27.80;47.70
5868;DHT22;2960;49.142;7.768;2022-10-22T14:00:47;27.80;47.70
5868;DHT22;2960;49.142;7.768;2022-10-22T14:03:18;27.80;47.90
5868;DHT22;2960;49.142;7.768;2022-10-22T14:05:48;27.80;48.10
5868;DHT22;2960;49.142;7.768;2022-10-22T14:08:18;27.80;48.10
5868;DHT22;2960;49.142;7.768;2022-10-22T14:10:46;27.80;48.20
5868;DHT22;2960;49.142;7.768;2022-10-22T14:13:15;27.80;48.20
5868;DHT22;2960;49.142;7.768;2022-10-22T14:15:45;27.80;48.30
5868;DHT22;2960;49.142;7.768;2022-10-22T14:18:17;27.70;48.50
5868;DHT22;2960;49.142;7.768;2022-10-22T14:20:51;27.70;48.70
5868;DHT22;2960;49.142;7.768;2022-10-22T14:23:21;27.60;48.80
5868;DHT22;2960;49.142;7.768;2022-10-22T14:25:50;27.50;49.00
5868;DHT22;2960;49.142;7.768;2022-10-22T14:28:17;27.40;49.20
5868;DHT22;2960;49.142;7.768;2022-10-22T14:30:44;27.30;49.40
5868;DHT22;2960;49.142;7.768;2022-10-22T14:33:16;27.10;49.60
5868;DHT22;2960;49.142;7.768;2022-10-22T14:35:46;27.00;49.80
5868;DHT22;2960;49.142;7.768;2022-10-22T14:38:14;26.90;50.00
5868;DHT22;2960;49.142;7.768;2022-10-22T14:40:41;26.80;50.30
5868;DHT22;2960;49.142;7.768;2022-10-22T14:43:10;26.70;50.50
5868;DHT22;2960;49.142;7.768;2022-10-22T14:45:37;26.50;50.40
5868;DHT22;2960;49.142;7.768;2022-10-22T14:48:04;26.30;50.70
5868;DHT22;2960;49.142;7.768;2022-10-22T14:50:34;26.30;50.90
5868;DHT22;2960;49.142;7.768;2022-10-22T14:53:01;26.20;51.00
5868;DHT22;2960;49.142;7.768;2022-10-22T14:55:28;26.10;51.10
5868;DHT22;2960;49.142;7.768;2022-10-22T14:57:55;26.00;51.30
5868;DHT22;2960;49.142;7.768;2022-10-22T15:00:22;25.90;51.20
5868;DHT22;2960;49.142;7.768;2022-10-22T15:02:49;25.70;51.30
5868;DHT22;2960;49.142;7.768;2022-10-22T15:05:16;25.60;51.60
5868;DHT22;2960;49.142;7.768;2022-10-22T15:07:45;25.50;52.00
5868;DHT22;2960;49.142;7.768;2022-10-22T15:10:12;25.40;52.30
5868;DHT22;2960;49.142;7.768;2022-10-22T15:12:39;25.30;52.60
5868;DHT22;2960;49.142;7.768;2022-10-22T15:15:07;25.20;52.90
5868;DHT22;2960;49.142;7.768;2022-10-22T15:17:35;25.10;53.20
5868;DHT22;2960;49.142;7.768;2022-10-22T15:20:02;24.90;53.40
5868;DHT22;2960;49.142;7.768;2022-10-22T15:22:31;24.80;53.60
5868;DHT22;2960;49.142;7.768;2022-10-22T15:25:01;24.70;53.90
5868;DHT22;2960;49.142;7.768;2022-10-22T15:27:30;24.60;54.20
5868;DHT22;2960;49.142;7.768;2022-10-22T15:29:57;24.50;54.90
5868;DHT22;2960;49.142;7.768;2022-10-22T15:32:24;24.40;54.50
5868;DHT22;2960;49.142;7.768;2022-10-22T15:34:53;24.20;54.70
5868;DHT22;2960;49.142;7.768;2022-10-22T15:37:21;24.10;55.00
5868;DHT22;2960;49.142;7.768;2022-10-22T15:39:48;23.90;55.20
5868;DHT22;2960;49.142;7.768;2022-10-22T15:42:17;23.70;55.50
5868;DHT22;2960;49.142;7.768;2022-10-22T15:44:44;23.50;55.80
5868;DHT22;2960;49.142;7.768;2022-10-22T15:47:11;23.30;56.00
5868;DHT22;2960;49.142;7.768;2022-10-22T15:49:38;23.20;56.20
5868;DHT22;2960;49.142;7.768;2022-10-22T15:52:06;23.10;56.40
5868;DHT22;2960;49.142;7.768;2022-10-22T15:54:34;22.90;56.50
5868;DHT22;2960;49.142;7.768;2022-10-22T15:57:02;22.80;57.40
5868;DHT22;2960;49.142;7.768;2022-10-22T15:59:34;22.60;57.00
5868;DHT22;2960;49.142;7.768;2022-10-22T16:02:02;22.50;57.30
5868;DHT22;2960;49.142;7.768;2022-10-22T16:04:29;22.40;57.40
5868;DHT22;2960;49.142;7.768;2022-10-22T16:06:56;22.20;57.60
5868;DHT22;2960;49.142;7.768;2022-10-22T16:09:25;22.10;57.80
5868;DHT22;2960;49.142;7.768;2022-10-22T16:11:53;22.00;57.90
5868;DHT22;2960;49.142;7.768;2022-10-22T16:14:21;21.90;58.10
5868;DHT22;2960;49.142;7.768;2022-10-22T16:16:51;21.80;58.20
5868;DHT22;2960;49.142;7.768;2022-10-22T16:19:21;21.70;58.30
5868;DHT22;2960;49.142;7.768;2022-10-22T16:21:50;21.60;58.30
5868;DHT22;2960;49.142;7.768;2022-10-22T16:24:18;21.60;58.50
5868;DHT22;2960;49.142;7.768;2022-10-22T16:26:46;21.50;58.50
5868;DHT22;2960;49.142;7.768;2022-10-22T16:29:14;21.40;58.60
5868;DHT22;2960;49.142;7.768;2022-10-22T16:31:43;21.40;58.70
5868;DHT22;2960;49.142;7.768;2022-10-22T16:34:12;21.30;58.70
5868;DHT22;2960;49.142;7.768;2022-10-22T16:36:39;21.20;59.40
5868;DHT22;2960;49.142;7.768;2022-10-22T16:39:06;21.20;59.00
5868;DHT22;2960;49.142;7.768;2022-10-22T16:41:33;21.10;59.10
5868;DHT22;2960;49.142;7.768;2022-10-22T16:44:02;21.00;59.30
5868;DHT22;2960;49.142;7.768;2022-10-22T16:46:31;20.90;59.40
5868;DHT22;2960;49.142;7.768;2022-10-22T16:48:58;20.80;59.50
5868;DHT22;2960;49.142;7.768;2022-10-22T16:51:27;20.70;59.50
5868;DHT22;2960;49.142;7.768;2022-10-22T16:53:55;20.70;59.60
5868;DHT22;2960;49.142;7.768;2022-10-22T16:56:23;20.60;59.60
5868;DHT22;2960;49.142;7.768;2022-10-22T16:58:52;20.50;59.70
5868;DHT22;2960;49.142;7.768;2022-10-22T17:01:22;20.50;59.80
5868;DHT22;2960;49.142;7.768;2022-10-22T17:03:51;20.40;59.90
5868;DHT22;2960;49.142;7.768;2022-10-22T17:06:20;20.30;60.00
5868;DHT22;2960;49.142;7.768;2022-10-22T17:08:48;20.20;60.20
5868;DHT22;2960;49.142;7.768;2022-10-22T17:11:17;20.20;60.40
5868;DHT22;2960;49.142;7.768;2022-10-22T17:13:46;20.10;60.40
5868;DHT22;2960;49.142;7.768;2022-10-22T17:16:17;20.00;61.20
5868;DHT22;2960;49.142;7.768;2022-10-22T17:18:46;20.00;60.50
5868;DHT22;2960;49.142;7.768;2022-10-22T17:21:13;20.00;60.70
5868;DHT22;2960;49.142;7.768;2022-10-22T17:23:41;19.90;60.80
5868;DHT22;2960;49.142;7.768;2022-10-22T17:26:13;19.80;60.80
5868;DHT22;2960;49.142;7.768;2022-10-22T17:28:42;19.70;60.80
5868;DHT22;2960;49.142;7.768;2022-10-22T17:31:14;19.70;61.00
5868;DHT22;2960;49.142;7.768;2022-10-22T17:33:43;19.60;61.10
5868;DHT22;2960;49.142;7.768;2022-10-22T17:36:13;19.50;61.20
5868;DHT22;2960;49.142;7.768;2022-10-22T17:38:42;19.40;61.30
5868;DHT22;2960;49.142;7.768;2022-10-22T17:41:17;19.40;61.50
5868;DHT22;2960;49.142;7.768;2022-10-22T17:43:47;19.30;61.60
5868;DHT22;2960;49.142;7.768;2022-10-22T17:46:17;19.30;61.70
5868;DHT22;2960;49.142;7.768;2022-10-22T17:48:48;19.20;61.60
5868;DHT22;2960;49.142;7.768;2022-10-22T17:51:18;19.20;61.70
5868;DHT22;2960;49.142;7.768;2022-10-22T17:53:45;19.10;61.60
5868;DHT22;2960;49.142;7.768;2022-10-22T17:56:17;19.10;61.70
5868;DHT22;2960;49.142;7.768;2022-10-22T17:58:46;19.10;61.70
5868;DHT22;2960;49.142;7.768;2022-10-22T18:01:18;19.00;61.60
5868;DHT22;2960;49.142;7.768;2022-10-22T18:03:46;19.00;61.70
5868;DHT22;2960;49.142;7.768;2022-10-22T18:06:15;19.00;61.80
5868;DHT22;2960;49.142;7.768;2022-10-22T18:08:43;18.90;61.80
5868;DHT22;2960;49.142;7.768;2022-10-22T18:11:12;18.90;61.90
5868;DHT22;2960;49.142;7.768;2022-10-22T18:13:41;18.80;62.00
5868;DHT22;2960;49.142;7.768;2022-10-22T18:16:08;18.70;62.00
5868;DHT22;2960;49.142;7.768;2022-10-22T18:18:36;18.70;62.10
5868;DHT22;2960;49.142;7.768;2022-10-22T18:21:04;18.60;62.00
5868;DHT22;2960;49.142;7.768;2022-10-22T18:23:31;18.60;62.10
5868;DHT22;2960;49.142;7.768;2022-10-22T18:25:58;18.60;62.20
5868;DHT22;2960;49.142;7.768;2022-10-22T18:28:25;18.50;62.20
5868;DHT22;2960;49.142;7.768;2022-10-22T18:30:54;18.50;62.20
5868;DHT22;2960;49.142;7.768;2022-10-22T18:33:21;18.50;62.30
5868;DHT22;2960;49.142;7.768;2022-10-22T18:35:50;18.40;62.20
5868;DHT22;2960;49.142;7.768;2022-10-22T18:38:18;18.40;62.40
5868;DHT22;2960;49.142;7.768;2022-10-22T18:40:48;18.40;62.40
5868;DHT22;2960;49.142;7.768;2022-10-22T18:43:16;18.30;62.40
5868;DHT22;2960;49.142;7.768;2022-10-22T18:45:44;18.20;63.40
5868;DHT22;2960;49.142;7.768;2022-10-22T18:48:15;18.10;62.80
5868;DHT22;2960;49.142;7.768;2022-10-22T18:50:43;18.00;62.90
5868;DHT22;2960;49.142;7.768;2022-10-22T18:53:13;18.00;62.90
5868;DHT22;2960;49.142;7.768;2022-10-22T18:55:41;18.00;63.00
5868;DHT22;2960;49.142;7.768;2022-10-22T18:58:08;18.00;62.90
5868;DHT22;2960;49.142;7.768;2022-10-22T19:00:35;18.00;62.90
5868;DHT22;2960;49.142;7.768;2022-10-22T19:03:05;17.90;62.80
5868;DHT22;2960;49.142;7.768;2022-10-22T19:05:34;17.90;62.80
5868;DHT22;2960;49.142;7.768;2022-10-22T19:08:01;17.90;62.90
5868;DHT22;2960;49.142;7.768;2022-10-22T19:10:28;17.90;63.70
5868;DHT22;2960;49.142;7.768;2022-10-22T19:12:55;17.80;62.90
5868;DHT22;2960;49.142;7.768;2022-10-22T19:15:22;17.80;62.90
5868;DHT22;2960;49.142;7.768;2022-10-22T19:17:49;17.80;63.80
5868;DHT22;2960;49.142;7.768;2022-10-22T19:20:16;17.80;63.10
5868;DHT22;2960;49.142;7.768;2022-10-22T19:22:44;17.70;63.10
5868;DHT22;2960;49.142;7.768;2022-10-22T19:25:11;17.70;63.20
5868;DHT22;2960;49.142;7.768;2022-10-22T19:27:38;17.70;63.30
5868;DHT22;2960;49.142;7.768;2022-10-22T19:30:07;17.60;63.30
5868;DHT22;2960;49.142;7.768;2022-10-22T19:32:35;17.60;63.30
5868;DHT22;2960;49.142;7.768;2022-10-22T19:35:04;17.50;63.50
5868;DHT22;2960;49.142;7.768;2022-10-22T19:37:35;17.50;63.60
5868;DHT22;2960;49.142;7.768;2022-10-22T19:40:05;17.50;63.70
5868;DHT22;2960;49.142;7.768;2022-10-22T19:42:33;17.50;63.80
5868;DHT22;2960;49.142;7.768;2022-10-22T19:45:02;17.50;64.60
5868;DHT22;2960;49.142;7.768;2022-10-22T19:47:30;17.50;64.00
5868;DHT22;2960;49.142;7.768;2022-10-22T19:49:57;17.50;64.00
5868;DHT22;2960;49.142;7.768;2022-10-22T19:52:27;17.50;64.10
5868;DHT22;2960;49.142;7.768;2022-10-22T19:54:54;17.50;64.10
5868;DHT22;2960;49.142;7.768;2022-10-22T19:57:22;17.40;64.10
5868;DHT22;2960;49.142;7.768;2022-10-22T19:59:49;17.40;64.30
5868;DHT22;2960;49.142;7.768;2022-10-22T20:02:17;17.40;64.30
5868;DHT22;2960;49.142;7.768;2022-10-22T20:04:44;17.40;64.50
5868;DHT22;2960;49.142;7.768;2022-10-22T20:07:11;17.30;64.70
5868;DHT22;2960;49.142;7.768;2022-10-22T20:09:38;17.20;64.80
5868;DHT22;2960;49.142;7.768;2022-10-22T20:12:06;17.20;65.00
5868;DHT22;2960;49.142;7.768;2022-10-22T20:14:35;17.20;65.10
5868;DHT22;2960;49.142;7.768;2022-10-22T20:17:02;17.20;65.30
5868;DHT22;2960;49.142;7.768;2022-10-22T20:19:30;17.20;65.40
5868;DHT22;2960;49.142;7.768;2022-10-22T20:21:57;17.20;65.40
5868;DHT22;2960;49.142;7.768;2022-10-22T20:24:24;17.20;65.50
5868;DHT22;2960;49.142;7.768;2022-10-22T20:26:51;17.20;65.60
5868;DHT22;2960;49.142;7.768;2022-10-22T20:29:18;17.10;65.60
5868;DHT22;2960;49.142;7.768;2022-10-22T20:31:46;17.10;65.70
5868;DHT22;2960;49.142;7.768;2022-10-22T20:34:14;17.10;65.80
5868;DHT22;2960;49.142;7.768;2022-10-22T20:36:41;17.10;66.00
5868;DHT22;2960;49.142;7.768;2022-10-22T20:39:12;17.10;66.10
5868;DHT22;2960;49.142;7.768;2022-10-22T20:41:40;17.10;66.20
5868;DHT22;2960;49.142;7.768;2022-10-22T20:44:11;17.00;66.20
5868;DHT22;2960;49.142;7.768;2022-10-22T20:46:41;17.00;66.30
5868;DHT22;2960;49.142;7.768;2022-10-22T20:49:10;17.00;67.10
5868;DHT22;2960;49.142;7.768;2022-10-22T20:51:39;17.00;66.40
5868;DHT22;2960;49.142;7.768;2022-10-22T20:54:07;17.00;66.40
5868;DHT22;2960;49.142;7.768;2022-10-22T20:56:36;17.00;66.50
5868;DHT22;2960;49.142;7.768;2022-10-22T20:59:04;17.00;66.50
5868;DHT22;2960;49.142;7.768;2022-10-22T21:01:35;16.90;66.50
5868;DHT22;2960;49.142;7.768;2022-10-22T21:04:04;16.90;66.60
5868;DHT22;2960;49.142;7.768;2022-10-22T21:06:33;16.90;66.70
5868;DHT22;2960;49.142;7.768;2022-10-22T21:09:03;16.80;66.70
5868;DHT22;2960;49.142;7.768;2022-10-22T21:11:31;16.80;66.90
5868;DHT22;2960;49.142;7.768;2022-10-22T21:14:01;16.80;66.90
5868;DHT22;2960;49.142;7.768;2022-10-22T21:16:29;16.80;67.10
5868;DHT22;2960;49.142;7.768;2022-10-22T21:18:56;16.80;67.20
5868;DHT22;2960;49.142;7.768;2022-10-22T21:21:23;16.70;67.30
5868;DHT22;2960;49.142;7.768;2022-10-22T21:23:52;16.70;67.30
5868;DHT22;2960;49.142;7.768;2022-10-22T21:26:19;16.70;67.30
5868;DHT22;2960;49.142;7.768;2022-10-22T21:28:46;16.70;67.40
5868;DHT22;2960;49.142;7.768;2022-10-22T21:31:14;16.70;67.40
5868;DHT22;2960;49.142;7.768;2022-10-22T21:33:47;16.70;67.50
5868;DHT22;2960;49.142;7.768;2022-10-22T21:36:14;16.70;67.70
5868;DHT22;2960;49.142;7.768;2022-10-22T21:38:42;16.60;67.70
5868;DHT22;2960;49.142;7.768;2022-10-22T21:41:11;16.60;67.70
5868;DHT22;2960;49.142;7.768;2022-10-22T21:43:44;16.60;67.80
5868;DHT22;2960;49.142;7.768;2022-10-22T21:46:13;16.60;67.80
5868;DHT22;2960;49.142;7.768;2022-10-22T21:48:42;16.60;67.90
5868;DHT22;2960;49.142;7.768;2022-10-22T21:51:10;16.60;67.90
5868;DHT22;2960;49.142;7.768;2022-10-22T21:53:39;16.60;67.90
5868;DHT22;2960;49.142;7.768;2022-10-22T21:56:15;16.60;68.00
5868;DHT22;2960;49.142;7.768;2022-10-22T21:58:44;16.60;68.00
5868;DHT22;2960;49.142;7.768;2022-10-22T22:01:11;16.50;68.00
5868;DHT22;2960;49.142;7.768;2022-10-22T22:03:41;16.50;68.00
5868;DHT22;2960;49.142;7.768;2022-10-22T22:06:08;16.50;68.00
5868;DHT22;2960;49.142;7.768;2022-10-22T22:08:35;16.50;68.00
5868;DHT22;2960;49.142;7.768;2022-10-22T22:11:08;16.50;68.10
5868;DHT22;2960;49.142;7.768;2022-10-22T22:13:38;16.50;68.20
5868;DHT22;2960;49.142;7.768;2022-10-22T22:16:07;16.50;68.30
5868;DHT22;2960;49.142;7.768;2022-10-22T22:18:36;16.40;68.20
5868;DHT22;2960;49.142;7.768;2022-10-22T22:21:05;16.40;68.30
5868;DHT22;2960;49.142;7.768;2022-10-22T22:23:37;16.40;68.30
5868;DHT22;2960;49.142;7.768;2022-10-22T22:26:09;16.40;68.40
5868;DHT22;2960;49.142;7.768;2022-10-22T22:28:38;16.40;68.50
5868;DHT22;2960;49.142;7.768;2022-10-22T22:31:11;16.40;68.50
5868;DHT22;2960;49.142;7.768;2022-10-22T22:33:39;16.40;68.60
5868;DHT22;2960;49.142;7.768;2022-10-22T22:36:07;16.30;68.50
5868;DHT22;2960;49.142;7.768;2022-10-22T22:38:34;16.30;68.60
5868;DHT22;2960;49.142;7.768;2022-10-22T22:41:01;16.30;68.70
5868;DHT22;2960;49.142;7.768;2022-10-22T22:43:28;16.30;68.70
5868;DHT22;2960;49.142;7.768;2022-10-22T22:46:01;16.30;68.70
5868;DHT22;2960;49.142;7.768;2022-10-22T22:48:29;16.30;68.80
5868;DHT22;2960;49.142;7.768;2022-10-22T22:50:56;16.30;68.80
5868;DHT22;2960;49.142;7.768;2022-10-22T22:53:25;16.20;68.80
5868;DHT22;2960;49.142;7.768;2022-10-22T22:56:04;16.20;68.80
5868;DHT22;2960;49.142;7.768;2022-10-22T22:58:34;16.20;68.90
5868;DHT22;2960;49.142;7.768;2022-10-22T23:01:14;16.20;69.00
5868;DHT22;2960;49.142;7.768;2022-10-22T23:03:44;16.20;69.00
5868;DHT22;2960;49.142;7.768;2022-10-22T23:06:12;16.20;69.10
5868;DHT22;2960;49.142;7.768;2022-10-22T23:08:40;16.10;69.10
5868;DHT22;2960;49.142;7.768;2022-10-22T23:11:09;16.10;69.10
5868;DHT22;2960;49.142;7.768;2022-10-22T23:13:38;16.10;69.20
5868;DHT22;2960;49.142;7.768;2022-10-22T23:16:07;16.10;69.30
5868;DHT22;2960;49.142;7.768;2022-10-22T23:18:36;16.10;69.40
5868;DHT22;2960;49.142;7.768;2022-10-22T23:21:04;16.00;69.20
5868;DHT22;2960;49.142;7.768;2022-10-22T23:23:32;16.00;69.40
5868;DHT22;2960;49.142;7.768;2022-10-22T23:26:00;16.00;69.40
5868;DHT22;2960;49.142;7.768;2022-10-22T23:28:27;16.00;69.40
5868;DHT22;2960;49.142;7.768;2022-10-22T23:30:54;16.00;69.50
5868;DHT22;2960;49.142;7.768;2022-10-22T23:33:21;16.00;69.60
5868;DHT22;2960;49.142;7.768;2022-10-22T23:35:49;15.90;70.20
5868;DHT22;2960;49.142;7.768;2022-10-22T23:38:16;15.90;69.50
5868;DHT22;2960;49.142;7.768;2022-10-22T23:40:43;15.90;69.60
5868;DHT22;2960;49.142;7.768;2022-10-22T23:43:11;15.90;69.60
5868;DHT22;2960;49.142;7.768;2022-10-22T23:45:38;15.90;69.70
5868;DHT22;2960;49.142;7.768;2022-10-22T23:48:05;15.90;69.80
5868;DHT22;2960;49.142;7.768;2022-10-22T23:50:35;15.90;69.90
5868;DHT22;2960;49.142;7.768;2022-10-22T23:53:03;15.80;69.80
5868;DHT22;2960;49.142;7.768;2022-10-22T23:55:30;15.80;69.80
5868;DHT22;2960;49.142;7.768;2022-10-22T23:57:57;15.80;69.90
